createdAt,value
2018-06-21T00:00:17.115Z,940.12
2018-06-21T00:01:17.117Z,940.11
2018-06-21T00:02:17.118Z,940.11
2018-06-21T00:03:17.122Z,940.14
2018-06-21T00:04:17.124Z,940.11
2018-06-21T00:05:17.127Z,940.10
2018-06-21T00:06:17.128Z,940.12
2018-06-21T00:07:17.130Z,940.10
2018-06-21T00:08:17.135Z,940.08
2018-06-21T00:09:17.136Z,940.09
2018-06-21T00:10:17.138Z,940.06
2018-06-21T00:11:17.140Z,940.05
2018-06-21T00:12:17.146Z,940.06
2018-06-21T00:13:17.146Z,940.08
2018-06-21T00:14:17.148Z,940.04
2018-06-21T00:15:17.151Z,940.01
2018-06-21T00:16:17.154Z,940.04
2018-06-21T00:17:17.156Z,940.03
2018-06-21T00:18:17.158Z,940.00
2018-06-21T00:19:17.163Z,940.04
2018-06-21T00:20:17.163Z,940.07
2018-06-21T00:21:17.166Z,940.04
2018-06-21T00:22:17.166Z,940.05
2018-06-21T00:23:17.169Z,940.03
2018-06-21T00:24:17.172Z,940.03
2018-06-21T00:25:17.176Z,940.02
2018-06-21T00:26:17.175Z,940.01
2018-06-21T00:27:17.179Z,939.99
2018-06-21T00:28:17.183Z,939.97
2018-06-21T00:29:17.244Z,939.96
2018-06-21T00:30:17.185Z,939.97
2018-06-21T00:31:17.187Z,939.92
2018-06-21T00:32:17.191Z,939.93
2018-06-21T00:33:17.192Z,939.90
2018-06-21T00:34:17.193Z,939.91
2018-06-21T00:35:17.196Z,939.92
2018-06-21T00:36:17.200Z,939.83
2018-06-21T00:37:17.203Z,939.82
2018-06-21T00:38:17.204Z,939.82
2018-06-21T00:39:17.205Z,939.81
2018-06-21T00:40:17.208Z,939.79
2018-06-21T00:41:17.211Z,939.79
2018-06-21T00:42:17.211Z,939.77
2018-06-21T00:43:17.214Z,939.79
2018-06-21T00:44:17.217Z,939.75
2018-06-21T00:45:17.218Z,939.74
2018-06-21T00:46:17.220Z,939.76
2018-06-21T00:47:17.222Z,939.76
2018-06-21T00:48:17.226Z,939.74
2018-06-21T00:49:17.227Z,939.71
2018-06-21T00:50:17.228Z,939.73
2018-06-21T00:51:17.234Z,939.71
2018-06-21T00:52:17.235Z,939.72
2018-06-21T00:53:17.237Z,939.70
2018-06-21T00:54:17.242Z,939.69
2018-06-21T00:55:17.240Z,939.68
2018-06-21T00:56:17.242Z,939.66
2018-06-21T00:57:17.245Z,939.64
2018-06-21T00:58:17.246Z,939.64
2018-06-21T00:59:17.247Z,939.66
2018-06-21T01:00:17.250Z,939.67
2018-06-21T01:01:17.254Z,939.63
2018-06-21T01:02:17.254Z,939.62
2018-06-21T01:03:17.257Z,939.58
2018-06-21T01:04:17.258Z,939.57
2018-06-21T01:05:17.260Z,939.55
2018-06-21T01:06:17.266Z,939.55
2018-06-21T01:07:17.264Z,939.51
2018-06-21T01:08:17.266Z,939.54
2018-06-21T01:09:17.270Z,939.51
2018-06-21T01:10:17.269Z,939.45
2018-06-21T01:11:17.272Z,939.47
2018-06-21T01:12:17.275Z,939.50
2018-06-21T01:13:17.276Z,939.44
2018-06-21T01:14:17.278Z,939.45
2018-06-21T01:15:17.282Z,939.47
2018-06-21T01:16:17.283Z,939.48
2018-06-21T01:17:17.284Z,939.48
2018-06-21T01:18:17.285Z,939.45
2018-06-21T01:19:17.286Z,939.44
2018-06-21T01:20:17.290Z,939.46
2018-06-21T01:21:17.291Z,939.43
2018-06-21T01:22:17.294Z,939.44
2018-06-21T01:23:17.295Z,939.46
2018-06-21T01:24:17.297Z,939.42
2018-06-21T01:25:17.304Z,939.48
2018-06-21T01:26:17.301Z,939.46
2018-06-21T01:27:17.302Z,939.42
2018-06-21T01:28:17.305Z,939.42
2018-06-21T01:29:17.307Z,939.38
2018-06-21T01:30:17.307Z,939.37
2018-06-21T01:31:17.310Z,939.39
2018-06-21T01:32:17.311Z,939.35
2018-06-21T01:33:17.314Z,939.30
2018-06-21T01:34:17.315Z,939.34
2018-06-21T01:35:17.318Z,939.33
2018-06-21T01:36:17.320Z,939.35
2018-06-21T01:37:17.323Z,939.33
2018-06-21T01:38:17.328Z,939.37
2018-06-21T01:39:17.325Z,939.38
2018-06-21T01:40:17.327Z,939.37
2018-06-21T01:41:17.329Z,939.40
2018-06-21T01:42:17.330Z,939.38
2018-06-21T01:43:17.332Z,939.39
2018-06-21T01:44:17.336Z,939.40
2018-06-21T01:45:17.335Z,939.46
2018-06-21T01:46:17.337Z,939.38
2018-06-21T01:47:17.339Z,939.38
2018-06-21T01:48:17.340Z,939.39
2018-06-21T01:49:17.342Z,939.37
2018-06-21T01:50:17.344Z,939.40
2018-06-21T01:51:17.346Z,939.38
2018-06-21T01:52:17.348Z,939.37
2018-06-21T01:53:17.351Z,939.38
2018-06-21T01:54:17.351Z,939.40
2018-06-21T01:55:17.354Z,939.41
2018-06-21T01:56:17.357Z,939.39
2018-06-21T01:57:17.356Z,939.42
2018-06-21T01:58:17.358Z,939.42
2018-06-21T01:59:17.361Z,939.43
2018-06-21T02:00:17.362Z,939.40
2018-06-21T02:01:17.377Z,939.37
2018-06-21T02:02:17.364Z,939.35
2018-06-21T02:03:17.368Z,939.35
2018-06-21T02:04:17.370Z,939.31
2018-06-21T02:05:17.370Z,939.27
2018-06-21T02:06:17.372Z,939.33
2018-06-21T02:07:17.373Z,939.32
2018-06-21T02:08:17.376Z,939.28
2018-06-21T02:09:17.378Z,939.29
2018-06-21T02:10:17.381Z,939.29
2018-06-21T02:11:17.381Z,939.28
2018-06-21T02:12:17.382Z,939.29
2018-06-21T02:13:17.389Z,939.27
2018-06-21T02:14:17.390Z,939.23
2018-06-21T02:15:17.387Z,939.23
2018-06-21T02:16:17.388Z,939.24
2018-06-21T02:17:17.391Z,939.23
2018-06-21T02:18:17.391Z,939.23
2018-06-21T02:19:17.397Z,939.23
2018-06-21T02:20:17.396Z,939.18
2018-06-21T02:21:17.397Z,939.20
2018-06-21T02:22:17.400Z,939.20
2018-06-21T02:23:17.404Z,939.18
2018-06-21T02:24:17.402Z,939.17
2018-06-21T02:25:17.408Z,939.17
2018-06-21T02:26:17.404Z,939.13
2018-06-21T02:27:17.407Z,939.12
2018-06-21T02:28:17.409Z,939.11
2018-06-21T02:29:17.410Z,939.12
2018-06-21T02:30:17.415Z,939.08
2018-06-21T02:31:17.414Z,939.11
2018-06-21T02:32:17.416Z,939.08
2018-06-21T02:33:17.421Z,939.07
2018-06-21T02:34:17.451Z,939.07
2018-06-21T02:35:17.421Z,939.07
2018-06-21T02:36:17.422Z,939.01
2018-06-21T02:37:17.424Z,938.99
2018-06-21T02:38:17.424Z,938.99
2018-06-21T02:39:17.428Z,939.02
2018-06-21T02:40:17.428Z,938.99
2018-06-21T02:41:17.459Z,939.01
2018-06-21T02:42:17.431Z,938.95
2018-06-21T02:43:17.433Z,938.97
2018-06-21T02:44:17.434Z,938.93
2018-06-21T02:45:17.436Z,938.96
2018-06-21T02:46:17.438Z,938.96
2018-06-21T02:47:17.440Z,938.99
2018-06-21T02:48:17.441Z,939.00
2018-06-21T02:49:17.441Z,938.96
2018-06-21T02:50:17.444Z,938.99
2018-06-21T02:51:17.444Z,938.97
2018-06-21T02:52:17.446Z,938.95
2018-06-21T02:53:17.449Z,938.93
2018-06-21T02:54:17.452Z,938.96
2018-06-21T02:55:17.453Z,938.96
2018-06-21T02:56:17.456Z,938.98
2018-06-21T02:57:17.456Z,938.93
2018-06-21T02:58:17.455Z,938.94
2018-06-21T02:59:17.459Z,938.89
2018-06-21T03:00:17.458Z,938.89
2018-06-21T03:01:17.462Z,938.91
2018-06-21T03:02:17.461Z,938.89
2018-06-21T03:03:17.472Z,938.83
2018-06-21T03:04:17.465Z,938.90
2018-06-21T03:05:17.468Z,938.87
2018-06-21T03:06:17.467Z,938.87
2018-06-21T03:07:17.471Z,938.88
2018-06-21T03:08:17.471Z,938.85
2018-06-21T03:09:17.473Z,938.82
2018-06-21T03:10:17.481Z,938.80
2018-06-21T03:11:17.523Z,938.81
2018-06-21T03:12:17.478Z,938.80
2018-06-21T03:13:17.480Z,938.75
2018-06-21T03:14:17.479Z,938.80
2018-06-21T03:15:17.479Z,938.79
2018-06-21T03:16:17.482Z,938.79
2018-06-21T03:17:17.485Z,938.80
2018-06-21T03:18:17.483Z,938.83
2018-06-21T03:19:17.484Z,938.81
2018-06-21T03:20:17.487Z,938.82
2018-06-21T03:21:17.489Z,938.86
2018-06-21T03:22:17.490Z,938.80
2018-06-21T03:23:17.490Z,938.81
2018-06-21T03:24:17.493Z,938.85
2018-06-21T03:25:17.494Z,938.84
2018-06-21T03:26:17.499Z,938.80
2018-06-21T03:27:17.496Z,938.81
2018-06-21T03:28:17.499Z,938.82
2018-06-21T03:29:17.500Z,938.80
2018-06-21T03:30:17.500Z,938.78
2018-06-21T03:31:17.503Z,938.76
2018-06-21T03:32:17.503Z,938.79
2018-06-21T03:33:17.506Z,938.80
2018-06-21T03:34:17.506Z,938.75
2018-06-21T03:35:17.527Z,938.74
2018-06-21T03:36:17.508Z,938.76
2018-06-21T03:37:17.511Z,938.76
2018-06-21T03:38:17.563Z,938.75
2018-06-21T03:39:17.512Z,938.75
2018-06-21T03:40:17.515Z,938.71
2018-06-21T03:41:17.517Z,938.71
2018-06-21T03:42:17.516Z,938.75
2018-06-21T03:43:17.519Z,938.80
2018-06-21T03:44:17.520Z,938.80
2018-06-21T03:45:17.523Z,938.79
2018-06-21T03:46:17.521Z,938.78
2018-06-21T03:47:17.523Z,938.81
2018-06-21T03:48:17.525Z,938.84
2018-06-21T03:49:17.526Z,938.81
2018-06-21T03:50:17.527Z,938.81
2018-06-21T03:51:17.529Z,938.81
2018-06-21T03:52:17.549Z,938.83
2018-06-21T03:53:17.532Z,938.80
2018-06-21T03:54:17.533Z,938.81
2018-06-21T03:55:17.538Z,938.80
2018-06-21T03:56:17.535Z,938.80
2018-06-21T03:57:17.536Z,938.84
2018-06-21T03:58:17.536Z,938.83
2018-06-21T03:59:17.538Z,938.86
2018-06-21T04:00:17.540Z,938.83
2018-06-21T04:01:17.542Z,938.87
2018-06-21T04:02:17.542Z,938.82
2018-06-21T04:03:17.544Z,938.83
2018-06-21T04:04:17.545Z,938.77
2018-06-21T04:05:17.581Z,938.84
2018-06-21T04:06:17.549Z,938.84
2018-06-21T04:07:17.550Z,938.86
2018-06-21T04:08:17.572Z,938.82
2018-06-21T04:09:17.553Z,938.85
2018-06-21T04:10:17.553Z,938.86
2018-06-21T04:11:17.558Z,938.86
2018-06-21T04:12:17.556Z,938.86
2018-06-21T04:13:17.557Z,938.90
2018-06-21T04:14:17.558Z,938.92
2018-06-21T04:15:17.560Z,938.93
2018-06-21T04:16:17.564Z,938.95
2018-06-21T04:17:17.567Z,938.93
2018-06-21T04:18:17.564Z,938.92
2018-06-21T04:19:17.565Z,938.95
2018-06-21T04:20:17.567Z,938.91
2018-06-21T04:21:17.570Z,938.89
2018-06-21T04:22:17.569Z,938.91
2018-06-21T04:23:17.572Z,938.93
2018-06-21T04:24:17.574Z,938.93
2018-06-21T04:25:17.575Z,938.92
2018-06-21T04:26:17.575Z,938.94
2018-06-21T04:27:17.576Z,938.92
2018-06-21T04:28:17.578Z,938.92
2018-06-21T04:29:17.580Z,938.91
2018-06-21T04:30:17.580Z,938.96
2018-06-21T04:31:17.583Z,938.91
2018-06-21T04:32:17.627Z,938.92
2018-06-21T04:33:17.586Z,938.93
2018-06-21T04:34:17.587Z,938.95
2018-06-21T04:35:17.589Z,939.00
2018-06-21T04:36:17.589Z,938.95
2018-06-21T04:37:17.591Z,938.99
2018-06-21T04:38:17.592Z,938.98
2018-06-21T04:39:17.594Z,938.96
2018-06-21T04:40:17.596Z,938.94
2018-06-21T04:41:17.597Z,938.94
2018-06-21T04:42:17.598Z,938.98
2018-06-21T04:43:17.599Z,938.98
2018-06-21T04:44:17.601Z,938.94
2018-06-21T04:45:17.604Z,938.97
2018-06-21T04:46:17.605Z,938.98
2018-06-21T04:47:17.605Z,938.94
2018-06-21T04:48:17.612Z,938.96
2018-06-21T04:49:17.612Z,938.96
2018-06-21T04:50:17.612Z,938.98
2018-06-21T04:51:17.613Z,938.99
2018-06-21T04:52:17.614Z,939.02
2018-06-21T04:53:17.617Z,939.02
2018-06-21T04:54:17.617Z,939.05
2018-06-21T04:55:17.619Z,939.05
2018-06-21T04:56:17.623Z,939.07
2018-06-21T04:57:17.622Z,939.08
2018-06-21T04:58:17.624Z,939.10
2018-06-21T04:59:17.626Z,939.10
2018-06-21T05:00:17.628Z,939.04
2018-06-21T05:01:17.630Z,939.04
2018-06-21T05:02:17.631Z,939.03
2018-06-21T05:03:17.636Z,939.06
2018-06-21T05:04:17.635Z,939.03
2018-06-21T05:05:17.637Z,939.03
2018-06-21T05:06:17.647Z,939.00
2018-06-21T05:07:17.639Z,939.03
2018-06-21T05:08:17.642Z,939.05
2018-06-21T05:09:17.644Z,939.04
2018-06-21T05:10:17.646Z,939.03
2018-06-21T05:11:17.647Z,939.03
2018-06-21T05:12:17.648Z,938.94
2018-06-21T05:13:17.651Z,939.00
2018-06-21T05:14:17.653Z,939.02
2018-06-21T05:15:17.655Z,939.01
2018-06-21T05:16:17.657Z,938.99
2018-06-21T05:17:17.659Z,938.96
2018-06-21T05:18:17.709Z,938.98
2018-06-21T05:19:17.663Z,938.96
2018-06-21T05:20:17.668Z,938.98
2018-06-21T05:21:17.667Z,939.01
2018-06-21T05:22:17.671Z,939.00
2018-06-21T05:23:17.674Z,939.03
2018-06-21T05:24:17.672Z,939.02
2018-06-21T05:25:17.674Z,939.03
2018-06-21T05:26:17.678Z,939.03
2018-06-21T05:27:17.678Z,939.04
2018-06-21T05:28:17.680Z,939.01
2018-06-21T05:29:17.682Z,939.03
2018-06-21T05:30:17.685Z,939.00
2018-06-21T05:31:17.687Z,938.97
2018-06-21T05:32:17.691Z,938.99
2018-06-21T05:33:17.691Z,938.97
2018-06-21T05:34:17.692Z,938.95
2018-06-21T05:35:17.696Z,938.97
2018-06-21T05:36:17.697Z,938.99
2018-06-21T05:37:17.700Z,938.95
2018-06-21T05:38:17.702Z,938.89
2018-06-21T05:39:17.704Z,938.88
2018-06-21T05:40:17.706Z,938.89
2018-06-21T05:41:17.712Z,938.89
2018-06-21T05:42:17.710Z,938.84
2018-06-21T05:43:17.714Z,938.82
2018-06-21T05:44:17.720Z,938.80
2018-06-21T05:45:17.718Z,938.86
2018-06-21T05:46:17.724Z,938.83
2018-06-21T05:47:17.722Z,938.84
2018-06-21T05:48:17.726Z,938.81
2018-06-21T05:49:17.728Z,938.81
2018-06-21T05:50:17.785Z,938.83
2018-06-21T05:51:17.732Z,938.83
2018-06-21T05:52:17.735Z,938.84
2018-06-21T05:53:17.738Z,938.81
2018-06-21T05:54:17.780Z,938.82
2018-06-21T05:55:17.743Z,938.83
2018-06-21T05:56:17.745Z,938.79
2018-06-21T05:57:17.748Z,938.81
2018-06-21T05:58:17.749Z,938.82
2018-06-21T05:59:17.754Z,938.83
2018-06-21T06:00:17.755Z,938.84
2018-06-21T06:01:17.759Z,938.78
2018-06-21T06:02:17.912Z,938.79
2018-06-21T06:03:17.792Z,938.77
2018-06-21T06:04:17.853Z,938.79
2018-06-21T06:05:17.822Z,938.75
2018-06-21T06:06:17.809Z,938.70
2018-06-21T06:07:17.880Z,938.70
2018-06-21T06:08:17.914Z,938.70
2018-06-21T06:09:17.875Z,938.71
2018-06-21T06:10:17.784Z,938.71
2018-06-21T06:11:17.786Z,938.71
2018-06-21T06:12:17.788Z,938.77
2018-06-21T06:13:17.792Z,938.75
2018-06-21T06:14:17.795Z,938.73
2018-06-21T06:15:17.799Z,938.71
2018-06-21T06:16:17.802Z,938.71
2018-06-21T06:17:17.805Z,938.75
2018-06-21T06:18:17.808Z,938.72
2018-06-21T06:19:17.810Z,938.75
2018-06-21T06:20:17.813Z,938.74
2018-06-21T06:21:17.818Z,938.78
2018-06-21T06:22:17.819Z,938.71
2018-06-21T06:23:17.823Z,938.77
2018-06-21T06:24:17.826Z,938.73
2018-06-21T06:25:17.831Z,938.71
2018-06-21T06:26:17.833Z,938.68
2018-06-21T06:27:17.837Z,938.67
2018-06-21T06:28:17.841Z,938.71
2018-06-21T06:29:17.845Z,938.67
2018-06-21T06:30:17.846Z,938.68
2018-06-21T06:31:17.850Z,938.69
2018-06-21T06:32:17.854Z,938.69
2018-06-21T06:33:17.858Z,938.73
2018-06-21T06:34:17.862Z,938.70
2018-06-21T06:35:17.866Z,938.68
2018-06-21T06:36:17.868Z,938.65
2018-06-21T06:37:17.876Z,938.68
2018-06-21T06:38:17.875Z,938.67
2018-06-21T06:39:17.880Z,938.67
2018-06-21T06:40:17.904Z,938.66
2018-06-21T06:41:17.891Z,938.66
2018-06-21T06:42:17.891Z,938.70
2018-06-21T06:43:17.895Z,938.70
2018-06-21T06:44:17.899Z,938.67
2018-06-21T06:45:17.903Z,938.69
2018-06-21T06:46:17.938Z,938.66
2018-06-21T06:47:17.911Z,938.66
2018-06-21T06:48:17.914Z,938.68
2018-06-21T06:49:17.920Z,938.69
2018-06-21T06:50:17.922Z,938.66
2018-06-21T06:51:17.928Z,938.64
2018-06-21T06:52:17.934Z,938.64
2018-06-21T06:53:17.935Z,938.64
2018-06-21T06:54:17.941Z,938.61
2018-06-21T06:55:17.943Z,938.64
2018-06-21T06:56:17.948Z,938.63
2018-06-21T06:57:17.953Z,938.67
2018-06-21T06:58:17.956Z,938.63
2018-06-21T06:59:17.961Z,938.62
2018-06-21T07:00:17.966Z,938.61
2018-06-21T07:01:17.970Z,938.63
2018-06-21T07:02:17.975Z,938.65
2018-06-21T07:03:17.978Z,938.59
2018-06-21T07:04:17.983Z,938.58
2018-06-21T07:05:17.987Z,938.53
2018-06-21T07:06:17.991Z,938.54
2018-06-21T07:07:17.998Z,938.54
2018-06-21T07:08:18.069Z,938.58
2018-06-21T07:09:18.007Z,938.59
2018-06-21T07:10:18.011Z,938.58
2018-06-21T07:11:18.015Z,938.54
2018-06-21T07:12:18.019Z,938.56
2018-06-21T07:13:18.265Z,938.59
2018-06-21T07:14:18.064Z,938.63
2018-06-21T07:15:18.035Z,938.59
2018-06-21T07:16:18.040Z,938.56
2018-06-21T07:17:18.044Z,938.51
2018-06-21T07:18:18.049Z,938.50
2018-06-21T07:19:18.053Z,938.54
2018-06-21T07:20:18.079Z,938.57
2018-06-21T07:21:18.112Z,938.51
2018-06-21T07:22:18.067Z,938.48
2018-06-21T07:23:18.075Z,938.48
2018-06-21T07:24:18.079Z,938.48
2018-06-21T07:25:18.083Z,938.52
2018-06-21T07:26:18.089Z,938.51
2018-06-21T07:27:18.093Z,938.55
2018-06-21T07:28:18.099Z,938.59
2018-06-21T07:29:18.108Z,938.52
2018-06-21T07:30:18.116Z,938.55
2018-06-21T07:31:18.115Z,938.55
2018-06-21T07:32:18.120Z,938.66
2018-06-21T07:33:18.222Z,938.84
2018-06-21T07:34:18.135Z,938.85
2018-06-21T07:35:18.139Z,938.82
2018-06-21T07:36:18.159Z,938.75
2018-06-21T07:37:18.152Z,938.72
2018-06-21T07:38:18.170Z,938.82
2018-06-21T07:39:18.168Z,938.83
2018-06-21T07:40:18.245Z,938.85
2018-06-21T07:41:18.186Z,938.82
2018-06-21T07:42:18.192Z,938.90
2018-06-21T07:43:18.203Z,938.77
2018-06-21T07:44:18.212Z,938.75
2018-06-21T07:45:18.222Z,938.74
2018-06-21T07:46:18.232Z,938.79
2018-06-21T07:47:18.245Z,938.79
2018-06-21T07:48:18.256Z,938.76
2018-06-21T07:49:18.265Z,938.68
2018-06-21T07:50:18.275Z,938.66
2018-06-21T07:51:18.286Z,938.62
2018-06-21T07:52:18.298Z,938.67
2018-06-21T07:53:18.309Z,938.72
2018-06-21T07:54:18.320Z,938.75
2018-06-21T07:55:18.333Z,938.72
2018-06-21T07:56:18.344Z,938.75
2018-06-21T07:57:18.356Z,938.79
2018-06-21T07:58:18.366Z,938.76
2018-06-21T07:59:18.380Z,938.72
2018-06-21T08:00:18.393Z,938.72
2018-06-21T08:01:18.406Z,938.72
2018-06-21T08:02:18.422Z,938.64
2018-06-21T08:03:18.434Z,938.57
2018-06-21T08:04:18.447Z,938.47
2018-06-21T08:05:18.461Z,938.67
2018-06-21T08:06:18.474Z,938.66
2018-06-21T08:07:18.489Z,938.66
2018-06-21T08:08:18.502Z,938.66
2018-06-21T08:09:18.516Z,938.56
2018-06-21T08:10:18.529Z,938.66
2018-06-21T08:11:18.544Z,938.66
2018-06-21T08:12:18.577Z,938.65
2018-06-21T08:13:18.573Z,938.54
2018-06-21T08:14:18.907Z,938.59
2018-06-21T08:15:18.866Z,938.64
2018-06-21T08:16:18.876Z,938.52
2018-06-21T08:17:18.910Z,938.55
2018-06-21T08:18:19.385Z,938.55
2018-06-21T08:19:18.660Z,938.50
2018-06-21T08:20:18.713Z,938.52
2018-06-21T08:21:18.693Z,938.50
2018-06-21T08:22:18.704Z,938.48
2018-06-21T08:23:18.735Z,938.49
2018-06-21T08:24:18.794Z,938.47
2018-06-21T08:25:18.749Z,938.44
2018-06-21T08:26:18.764Z,938.45
2018-06-21T08:27:18.808Z,938.50
2018-06-21T08:28:18.794Z,938.41
2018-06-21T08:29:18.813Z,938.45
2018-06-21T08:30:18.825Z,938.45
2018-06-21T08:31:18.840Z,938.45
2018-06-21T08:32:18.910Z,938.48
2018-06-21T08:33:18.878Z,938.46
2018-06-21T08:34:18.886Z,938.47
2018-06-21T08:35:18.905Z,938.48
2018-06-21T08:36:18.917Z,938.45
2018-06-21T08:37:18.934Z,938.49
2018-06-21T08:38:18.949Z,938.46
2018-06-21T08:39:18.963Z,938.42
2018-06-21T08:40:18.981Z,938.46
2018-06-21T08:41:18.998Z,938.49
2018-06-21T08:42:19.011Z,938.47
2018-06-21T08:43:19.029Z,938.43
2018-06-21T08:44:19.045Z,938.43
2018-06-21T08:45:19.061Z,938.40
2018-06-21T08:46:19.077Z,938.41
2018-06-21T08:47:19.093Z,938.42
2018-06-21T08:48:19.110Z,938.39
2018-06-21T08:49:19.125Z,938.38
2018-06-21T08:50:19.141Z,938.39
2018-06-21T08:51:19.158Z,938.37
2018-06-21T08:52:19.176Z,938.37
2018-06-21T08:53:19.190Z,938.40
2018-06-21T08:54:19.208Z,938.37
2018-06-21T08:55:19.225Z,938.38
2018-06-21T08:56:19.240Z,938.39
2018-06-21T08:57:19.258Z,938.37
2018-06-21T08:58:19.276Z,938.32
2018-06-21T08:59:19.325Z,938.37
2018-06-21T09:00:19.307Z,938.33
2018-06-21T09:01:19.326Z,938.32
2018-06-21T09:02:19.339Z,938.32
2018-06-21T09:03:19.357Z,938.35
2018-06-21T09:04:19.374Z,938.30
2018-06-21T09:05:19.391Z,938.33
2018-06-21T09:06:19.408Z,938.28
2018-06-21T09:07:19.424Z,938.29
2018-06-21T09:08:19.441Z,938.11
2018-06-21T09:09:19.459Z,938.13
2018-06-21T09:10:19.471Z,938.28
2018-06-21T09:11:19.488Z,938.25
2018-06-21T09:12:19.502Z,938.27
2018-06-21T09:13:19.518Z,938.27
2018-06-21T09:14:19.533Z,938.26
2018-06-21T09:15:19.561Z,938.26
2018-06-21T09:16:19.565Z,938.13
2018-06-21T09:17:19.581Z,938.16
2018-06-21T09:18:19.595Z,938.12
2018-06-21T09:19:19.829Z,938.09
2018-06-21T09:20:19.629Z,938.13
2018-06-21T09:21:19.639Z,938.10
2018-06-21T09:22:19.653Z,938.11
2018-06-21T09:23:19.666Z,938.05
2018-06-21T09:24:19.684Z,938.18
2018-06-21T09:25:19.696Z,938.19
2018-06-21T09:26:19.707Z,938.10
2018-06-21T09:27:19.720Z,938.07
2018-06-21T09:28:19.735Z,938.02
2018-06-21T09:29:19.747Z,938.12
2018-06-21T09:30:19.761Z,938.16
2018-06-21T09:31:19.798Z,938.06
2018-06-21T09:32:19.788Z,938.05
2018-06-21T09:33:19.829Z,938.06
2018-06-21T09:34:19.817Z,938.01
2018-06-21T09:35:19.825Z,938.05
2018-06-21T09:36:19.837Z,938.00
2018-06-21T09:37:19.850Z,938.11
2018-06-21T09:38:19.862Z,938.11
2018-06-21T09:39:19.874Z,938.14
2018-06-21T09:40:19.888Z,938.11
2018-06-21T09:41:19.902Z,938.11
2018-06-21T09:42:19.912Z,938.09
2018-06-21T09:43:19.927Z,938.09
2018-06-21T09:44:19.940Z,938.09
2018-06-21T09:45:19.953Z,938.07
2018-06-21T09:46:19.967Z,938.04
2018-06-21T09:47:19.982Z,938.07
2018-06-21T09:48:19.994Z,938.09
2018-06-21T09:49:20.010Z,938.04
2018-06-21T09:50:20.023Z,938.07
2018-06-21T09:51:20.039Z,938.08
2018-06-21T09:52:20.051Z,938.01
2018-06-21T09:53:20.069Z,938.02
2018-06-21T09:54:20.081Z,938.06
2018-06-21T09:55:20.095Z,938.04
2018-06-21T09:56:20.110Z,937.98
2018-06-21T09:57:20.128Z,938.00
2018-06-21T09:58:20.235Z,938.00
2018-06-21T09:59:20.218Z,938.02
2018-06-21T10:00:20.179Z,938.00
2018-06-21T10:01:20.184Z,937.95
2018-06-21T10:02:20.202Z,938.00
2018-06-21T10:03:20.214Z,938.01
2018-06-21T10:04:20.230Z,937.96
2018-06-21T10:05:20.243Z,938.02
2018-06-21T10:06:20.258Z,937.97
2018-06-21T10:07:20.272Z,938.00
2018-06-21T10:08:20.287Z,938.02
2018-06-21T10:09:20.302Z,937.97
2018-06-21T10:10:20.366Z,937.97
2018-06-21T10:11:20.333Z,938.05
2018-06-21T10:12:20.348Z,937.99
2018-06-21T10:13:20.477Z,937.99
2018-06-21T10:14:20.604Z,938.02
2018-06-21T10:15:20.395Z,937.95
2018-06-21T10:16:20.408Z,937.95
2018-06-21T10:17:20.422Z,937.98
2018-06-21T10:18:20.435Z,938.00
2018-06-21T10:19:20.451Z,937.96
2018-06-21T10:20:20.468Z,937.98
2018-06-21T10:21:20.481Z,937.98
2018-06-21T10:22:20.495Z,937.92
2018-06-21T10:23:20.512Z,937.93
2018-06-21T10:24:20.523Z,937.92
2018-06-21T10:25:20.538Z,937.80
2018-06-21T10:26:20.553Z,937.86
2018-06-21T10:27:20.576Z,937.90
2018-06-21T10:28:20.580Z,937.89
2018-06-21T10:29:20.596Z,937.80
2018-06-21T10:30:20.608Z,937.79
2018-06-21T10:31:20.622Z,937.75
2018-06-21T10:32:20.636Z,937.76
2018-06-21T10:33:20.708Z,937.77
2018-06-21T10:34:20.668Z,937.74
2018-06-21T10:35:20.678Z,937.70
2018-06-21T10:36:21.258Z,937.75
2018-06-21T10:37:20.706Z,937.79
2018-06-21T10:38:20.718Z,937.76
2018-06-21T10:39:20.730Z,937.79
2018-06-21T10:40:20.745Z,937.71
2018-06-21T10:41:20.758Z,937.78
2018-06-21T10:42:20.770Z,937.74
2018-06-21T10:43:20.782Z,937.68
2018-06-21T10:44:20.795Z,937.76
2018-06-21T10:45:20.809Z,937.72
2018-06-21T10:46:21.238Z,937.65
2018-06-21T10:47:20.832Z,937.72
2018-06-21T10:48:20.845Z,937.70
2018-06-21T10:49:20.858Z,937.59
2018-06-21T10:50:20.871Z,937.62
2018-06-21T10:51:20.882Z,937.62
2018-06-21T10:52:20.894Z,937.66
2018-06-21T10:53:20.906Z,937.57
2018-06-21T10:54:20.916Z,937.55
2018-06-21T10:55:20.931Z,937.56
2018-06-21T10:56:20.942Z,937.53
2018-06-21T10:57:20.955Z,937.56
2018-06-21T10:58:20.968Z,937.54
2018-06-21T10:59:20.978Z,937.58
2018-06-21T11:00:20.992Z,937.60
2018-06-21T11:01:21.004Z,937.55
2018-06-21T11:02:21.024Z,937.59
2018-06-21T11:03:21.060Z,937.56
2018-06-21T11:04:21.040Z,937.60
2018-06-21T11:05:21.057Z,937.57
2018-06-21T11:06:21.064Z,937.52
2018-06-21T11:07:21.339Z,937.49
2018-06-21T11:08:21.090Z,937.49
2018-06-21T11:09:21.104Z,937.51
2018-06-21T11:10:21.115Z,937.45
2018-06-21T11:11:21.128Z,937.51
2018-06-21T11:12:21.159Z,937.46
2018-06-21T11:13:21.154Z,937.42
2018-06-21T11:14:21.167Z,937.40
2018-06-21T11:15:21.178Z,937.46
2018-06-21T11:16:21.192Z,937.44
2018-06-21T11:17:21.205Z,937.46
2018-06-21T11:18:21.217Z,937.38
2018-06-21T11:19:21.231Z,937.41
2018-06-21T11:20:21.244Z,937.39
2018-06-21T11:21:21.277Z,937.43
2018-06-21T11:22:21.269Z,937.42
2018-06-21T11:23:21.281Z,937.39
2018-06-21T11:24:21.295Z,937.41
2018-06-21T11:25:21.309Z,937.39
2018-06-21T11:26:21.323Z,937.38
2018-06-21T11:27:21.425Z,937.39
2018-06-21T11:28:21.346Z,937.32
2018-06-21T11:29:21.360Z,937.35
2018-06-21T11:30:21.372Z,937.36
2018-06-21T11:31:21.384Z,937.39
2018-06-21T11:32:21.396Z,937.40
2018-06-21T11:33:21.411Z,937.31
2018-06-21T11:34:21.432Z,937.30
2018-06-21T11:35:21.436Z,937.29
2018-06-21T11:36:21.448Z,937.27
2018-06-21T11:37:21.462Z,937.28
2018-06-21T11:38:21.474Z,937.22
2018-06-21T11:39:21.486Z,937.20
2018-06-21T11:40:21.500Z,937.22
2018-06-21T11:41:21.513Z,937.22
2018-06-21T11:42:21.525Z,937.19
2018-06-21T11:43:21.538Z,937.20
2018-06-21T11:44:21.550Z,937.21
2018-06-21T11:45:21.563Z,937.14
2018-06-21T11:46:21.576Z,937.17
2018-06-21T11:47:21.589Z,937.16
2018-06-21T11:48:21.601Z,937.13
2018-06-21T11:49:21.615Z,937.13
2018-06-21T11:50:21.629Z,937.17
2018-06-21T11:51:21.639Z,937.12
2018-06-21T11:52:21.700Z,937.14
2018-06-21T11:53:21.665Z,937.12
2018-06-21T11:54:21.676Z,937.12
2018-06-21T11:55:21.689Z,937.13
2018-06-21T11:56:21.704Z,937.11
2018-06-21T11:57:21.715Z,937.10
2018-06-21T11:58:21.727Z,937.09
2018-06-21T11:59:21.740Z,937.13
2018-06-21T12:00:21.753Z,937.13
2018-06-21T12:01:21.764Z,937.10
2018-06-21T12:02:21.776Z,937.10
2018-06-21T12:03:21.793Z,937.08
2018-06-21T12:04:21.804Z,937.06
2018-06-21T12:05:21.814Z,937.06
2018-06-21T12:06:21.825Z,937.02
2018-06-21T12:07:21.838Z,937.04
2018-06-21T12:08:21.850Z,937.08
2018-06-21T12:09:21.867Z,937.09
2018-06-21T12:10:21.876Z,937.07
2018-06-21T12:11:21.888Z,937.06
2018-06-21T12:12:21.900Z,937.11
2018-06-21T12:13:21.923Z,937.07
2018-06-21T12:14:21.923Z,937.06
2018-06-21T12:15:21.935Z,937.08
2018-06-21T12:16:21.948Z,937.08
2018-06-21T12:17:21.960Z,937.10
2018-06-21T12:18:21.972Z,937.04
2018-06-21T12:19:21.984Z,937.00
2018-06-21T12:20:21.999Z,937.01
2018-06-21T12:21:22.008Z,937.12
2018-06-21T12:22:22.021Z,937.04
2018-06-21T12:23:22.034Z,937.08
2018-06-21T12:24:22.044Z,937.11
2018-06-21T12:25:22.065Z,937.05
2018-06-21T12:26:22.134Z,937.04
2018-06-21T12:27:22.080Z,937.00
2018-06-21T12:28:22.093Z,936.94